Greeneville Municipal (3B1)
Greeneville, ME
Field Elevation: 1401
Lat: 45°27.80N  Long: 69°33.10W
CTAF/Unicom Freq: 122.8000
   
     For Weather-by-Phone, call (207) 695-2581
Weather Advisories
2021-11-30   09:39 Z
Altimeter 29.71" Hg
Wind 330° @ 11 KT
Gusts 22 KT
Visibility 10 SM
Ceiling FEW015
Temperature -9° C (16° F)
Dewpoint -12° C (10° F)
Relative Humidity 79%
Density Altitude --
Condensation Altitude 2,800 feet
Wind Chill: -17° C (1° F)
Wind and Runways
Indicated Runway = 32
Headwind = 11 kt
Crosswind = 2 kt
History
 
 
 
More Info
NOAA Forecast
 
 
About Us
Belfort Instrument
 
 
FAA Disclaimer: The data displayed is for advisory purposes only and is not to be used for flight planning or operations. For official data, please call (207) 695-2581 to hear the current automated AWOS voice message.
  METAR 3B1 300939Z AUTO 33011G22KT 10 SM FEW015 M09/M12 A2971